createdAt,value
2018-11-10T00:00:36.251Z,83.70
2018-11-10T00:03:05.806Z,54.40
2018-11-10T00:05:34.636Z,39.93
2018-11-10T00:08:04.537Z,58.20
2018-11-10T00:10:33.151Z,66.00
2018-11-10T00:13:01.818Z,42.03
2018-11-10T00:15:30.481Z,43.33
2018-11-10T00:17:59.958Z,39.10
2018-11-10T00:20:28.910Z,41.97
2018-11-10T00:22:57.550Z,30.80
2018-11-10T00:25:26.166Z,43.27
2018-11-10T00:27:54.743Z,70.40
2018-11-10T00:30:23.841Z,47.03
2018-11-10T00:32:52.520Z,30.50
2018-11-10T00:35:21.169Z,31.07
2018-11-10T00:37:49.846Z,24.33
2018-11-10T00:40:18.520Z,21.40
2018-11-10T00:42:47.217Z,58.93
2018-11-10T00:45:15.869Z,57.53
2018-11-10T00:47:44.472Z,156.17
2018-11-10T00:50:13.124Z,43.30
2018-11-10T00:52:41.781Z,53.43
2018-11-10T00:55:10.945Z,58.70
2018-11-10T00:57:39.649Z,33.07
2018-11-10T01:00:10.510Z,33.03
2018-11-10T01:02:39.133Z,42.50
2018-11-10T01:05:07.754Z,52.07
2018-11-10T01:07:36.417Z,26.30
2018-11-10T01:10:05.857Z,25.47
2018-11-10T01:12:34.537Z,80.40
2018-11-10T01:15:03.247Z,84.80
2018-11-10T01:17:31.912Z,104.83
2018-11-10T01:20:00.562Z,93.00
2018-11-10T01:22:29.280Z,61.87
2018-11-10T01:24:58.778Z,55.80
2018-11-10T01:27:27.433Z,70.90
2018-11-10T01:29:56.132Z,98.47
2018-11-10T01:32:24.770Z,137.30
2018-11-10T01:34:53.368Z,43.23
2018-11-10T01:37:22.001Z,108.97
2018-11-10T01:39:50.575Z,74.80
2018-11-10T01:42:19.168Z,100.27
2018-11-10T01:44:47.964Z,195.43
2018-11-10T01:47:16.553Z,250.67
2018-11-10T01:49:45.243Z,96.80
2018-11-10T01:52:13.929Z,175.90
2018-11-10T01:54:42.618Z,98.80
2018-11-10T01:57:11.911Z,85.83
2018-11-10T01:59:40.954Z,155.80
2018-11-10T02:02:09.777Z,104.73
2018-11-10T02:04:38.450Z,135.60
2018-11-10T02:07:07.067Z,151.60
2018-11-10T02:09:36.223Z,30.80
2018-11-10T02:12:04.963Z,95.37
2018-11-10T02:14:33.707Z,154.03
2018-11-10T02:17:02.395Z,165.43
2018-11-10T02:19:31.011Z,55.57
2018-11-10T02:22:00.355Z,145.47
2018-11-10T02:24:29.081Z,78.07
2018-11-10T02:26:57.756Z,315.53
2018-11-10T02:29:27.100Z,167.73
2018-11-10T02:31:55.831Z,220.47
2018-11-10T02:34:24.445Z,47.57
2018-11-10T02:36:53.066Z,266.67
2018-11-10T02:39:21.690Z,59.43
2018-11-10T02:41:50.249Z,91.63
2018-11-10T02:44:18.961Z,79.70
2018-11-10T02:46:47.661Z,56.20
2018-11-10T02:49:16.714Z,187.63
2018-11-10T02:51:45.990Z,163.43
2018-11-10T02:54:14.605Z,95.67
2018-11-10T02:56:43.190Z,361.87
2018-11-10T02:59:11.871Z,197.20
2018-11-10T03:01:40.495Z,80.33
2018-11-10T03:04:09.190Z,71.70
2018-11-10T03:06:38.470Z,210.97
2018-11-10T03:09:07.885Z,207.83
2018-11-10T03:11:36.627Z,176.87
2018-11-10T03:14:05.548Z,121.97
2018-11-10T03:16:34.171Z,69.57
2018-11-10T03:19:02.772Z,109.60
2018-11-10T03:21:31.573Z,53.27
2018-11-10T03:24:00.177Z,147.33
2018-11-10T03:26:28.793Z,91.90
2018-11-10T03:28:57.471Z,124.87
2018-11-10T03:31:26.162Z,113.37
2018-11-10T03:33:54.806Z,22.43
2018-11-10T03:36:23.484Z,163.50
2018-11-10T03:38:52.125Z,112.50
2018-11-10T03:41:20.839Z,67.00
2018-11-10T03:43:49.581Z,118.10
2018-11-10T03:46:18.243Z,218.73
2018-11-10T03:48:47.342Z,70.10
2018-11-10T03:51:15.941Z,72.70
2018-11-10T03:53:44.516Z,271.00
2018-11-10T03:56:13.121Z,70.33
2018-11-10T03:58:41.829Z,143.43
2018-11-10T04:01:10.496Z,285.47
2018-11-10T04:03:39.381Z,278.90
2018-11-10T04:06:08.038Z,179.67
2018-11-10T04:08:36.694Z,112.87
2018-11-10T04:11:05.474Z,186.43
2018-11-10T04:13:34.488Z,213.00
2018-11-10T04:16:03.093Z,25.40
2018-11-10T04:18:31.762Z,177.97
2018-11-10T04:21:00.533Z,128.33
2018-11-10T04:23:29.148Z,113.40
2018-11-10T04:25:57.851Z,94.40
2018-11-10T04:28:26.672Z,56.57
2018-11-10T04:30:55.319Z,31.73
2018-11-10T04:33:23.975Z,29.10
2018-11-10T04:35:52.575Z,116.90
2018-11-10T04:38:21.201Z,71.83
2018-11-10T04:40:50.106Z,40.97
2018-11-10T04:43:18.819Z,62.70
2018-11-10T04:45:47.434Z,117.33
2018-11-10T04:48:16.527Z,61.37
2018-11-10T04:50:45.151Z,118.77
2018-11-10T04:53:13.744Z,119.17
2018-11-10T04:55:42.407Z,80.73
2018-11-10T04:58:11.029Z,91.70
2018-11-10T05:00:39.692Z,94.97
2018-11-10T05:03:09.052Z,124.73
2018-11-10T05:05:37.682Z,14.77
2018-11-10T05:08:06.701Z,56.53
2018-11-10T05:10:35.449Z,122.37
2018-11-10T05:13:04.191Z,133.57
2018-11-10T05:15:32.873Z,72.03
2018-11-10T05:18:01.495Z,106.77
2018-11-10T05:20:30.129Z,115.20
2018-11-10T05:22:58.787Z,92.07
2018-11-10T05:25:27.470Z,77.63
2018-11-10T05:27:56.082Z,53.80
2018-11-10T05:30:24.753Z,9.40
2018-11-10T05:32:53.427Z,104.10
2018-11-10T05:35:22.014Z,110.30
2018-11-10T05:37:50.601Z,94.93
2018-11-10T05:40:19.275Z,37.20
2018-11-10T05:42:48.545Z,16.93
2018-11-10T05:45:17.162Z,23.27
2018-11-10T05:47:46.139Z,36.83
2018-11-10T05:50:14.732Z,30.80
2018-11-10T05:52:46.374Z,9.23
2018-11-10T05:55:14.973Z,44.50
2018-11-10T05:57:43.612Z,84.83
2018-11-10T06:00:13.434Z,83.27
2018-11-10T06:02:42.743Z,60.57
2018-11-10T06:05:11.985Z,20.47
2018-11-10T06:07:40.637Z,74.00
2018-11-10T06:10:10.948Z,67.37
2018-11-10T06:12:39.485Z,46.03
2018-11-10T06:15:08.663Z,22.50
2018-11-10T06:17:37.514Z,40.30
2018-11-10T06:20:07.693Z,49.33
2018-11-10T06:22:36.429Z,66.50
2018-11-10T06:25:06.172Z,129.73
2018-11-10T06:27:35.150Z,27.60
2018-11-10T06:30:03.868Z,25.07
2018-11-10T06:32:32.759Z,154.73
2018-11-10T06:35:01.604Z,9.10
2018-11-10T06:37:30.488Z,161.97
2018-11-10T06:39:59.405Z,45.07
2018-11-10T06:42:28.415Z,122.50
2018-11-10T06:44:57.069Z,99.00
2018-11-10T06:47:26.120Z,35.10
2018-11-10T06:49:54.914Z,53.77
2018-11-10T06:52:23.549Z,54.07
2018-11-10T06:54:52.222Z,61.07
2018-11-10T06:57:20.956Z,58.70
2018-11-10T06:59:49.801Z,116.83
2018-11-10T07:02:18.522Z,62.47
2018-11-10T07:04:47.222Z,415.97
2018-11-10T07:07:15.893Z,61.20
2018-11-10T07:09:44.571Z,15.50
2018-11-10T07:12:13.331Z,40.80
2018-11-10T07:14:42.011Z,17.00
2018-11-10T07:17:10.887Z,6.33
2018-11-10T07:19:39.710Z,24.10
2018-11-10T07:22:08.539Z,11.60
2018-11-10T07:24:37.904Z,7.43
2018-11-10T07:27:06.801Z,7.47
2018-11-10T07:29:35.521Z,24.73
2018-11-10T07:32:04.288Z,9.67
2018-11-10T07:34:33.091Z,41.57
2018-11-10T07:37:01.862Z,46.30
2018-11-10T07:39:30.615Z,29.47
2018-11-10T07:42:00.731Z,24.47
2018-11-10T07:44:29.772Z,10.33
2018-11-10T07:46:58.411Z,23.00
2018-11-10T07:49:27.196Z,9.10
2018-11-10T07:51:56.039Z,10.83
2018-11-10T07:54:24.743Z,25.47
2018-11-10T07:56:53.491Z,5.70
2018-11-10T07:59:22.357Z,10.43
2018-11-10T08:01:51.120Z,5.30
2018-11-10T08:04:19.899Z,4.43
2018-11-10T08:06:49.276Z,8.20
2018-11-10T08:09:17.955Z,7.77
2018-11-10T08:11:46.716Z,5.97
2018-11-10T08:14:15.409Z,5.43
2018-11-10T08:16:44.269Z,4.50
2018-11-10T08:19:12.960Z,6.17
2018-11-10T08:21:41.694Z,4.80
2018-11-10T08:24:10.391Z,3.63
2018-11-10T08:26:39.669Z,3.30
2018-11-10T08:29:08.312Z,3.97
2018-11-10T08:31:36.929Z,7.10
2018-11-10T08:34:05.544Z,6.97
2018-11-10T08:36:34.170Z,3.43
2018-11-10T08:39:02.871Z,3.57
2018-11-10T08:41:31.424Z,4.10
2018-11-10T08:44:00.013Z,3.40
2018-11-10T08:46:28.634Z,5.37
2018-11-10T08:48:57.806Z,2.80
2018-11-10T08:51:26.669Z,4.67
2018-11-10T08:53:55.460Z,10.87
2018-11-10T08:56:23.999Z,4.10
2018-11-10T08:58:52.611Z,3.43
2018-11-10T09:01:21.174Z,3.23
2018-11-10T09:03:49.711Z,4.30
2018-11-10T09:06:18.312Z,3.63
2018-11-10T09:08:46.874Z,3.80
2018-11-10T09:11:15.481Z,3.60
2018-11-10T09:13:44.030Z,5.70
2018-11-10T09:16:12.615Z,5.83
2018-11-10T09:18:41.365Z,3.50
2018-11-10T09:21:09.980Z,3.47
2018-11-10T09:23:38.677Z,3.57
2018-11-10T09:26:07.251Z,3.90
2018-11-10T09:28:36.290Z,4.10
2018-11-10T09:31:05.137Z,2.77
2018-11-10T09:33:34.304Z,3.20
2018-11-10T09:36:02.908Z,2.70
2018-11-10T09:38:31.482Z,2.67
2018-11-10T09:41:00.778Z,2.40
2018-11-10T09:43:29.309Z,3.00
2018-11-10T09:45:58.061Z,4.13
2018-11-10T09:48:26.601Z,2.60
2018-11-10T09:50:55.359Z,5.43
2018-11-10T09:53:23.814Z,2.70
2018-11-10T09:55:52.350Z,2.50
2018-11-10T09:58:20.974Z,4.27
2018-11-10T10:00:49.571Z,6.73
2018-11-10T10:03:18.174Z,22.07
2018-11-10T10:05:46.755Z,2.23
2018-11-10T10:08:15.560Z,3.30
2018-11-10T10:10:44.173Z,2.17
2018-11-10T10:13:13.661Z,2.20
2018-11-10T10:15:42.194Z,68.73
2018-11-10T10:18:10.753Z,11.63
2018-11-10T10:20:39.937Z,3.60
2018-11-10T10:23:08.514Z,5.97
2018-11-10T10:25:37.262Z,2.07
2018-11-10T10:28:06.063Z,2.10
2018-11-10T10:30:34.844Z,2.30
2018-11-10T10:33:03.489Z,2.63
2018-11-10T10:35:32.807Z,2.10
2018-11-10T10:38:01.322Z,2.40
2018-11-10T10:40:29.932Z,3.00
2018-11-10T10:42:58.600Z,2.47
2018-11-10T10:45:27.181Z,3.70
2018-11-10T10:47:55.878Z,3.37
2018-11-10T10:50:24.562Z,2.73
2018-11-10T10:52:53.109Z,1.70
2018-11-10T10:55:21.688Z,2.07
2018-11-10T10:57:50.811Z,3.00
2018-11-10T11:00:24.684Z,1.70
2018-11-10T11:02:58.759Z,1.60
2018-11-10T11:05:49.041Z,1.50
2018-11-10T11:08:17.643Z,1.70
2018-11-10T11:10:46.217Z,1.77
2018-11-10T11:13:15.501Z,2.87
2018-11-10T11:15:44.127Z,2.17
2018-11-10T11:18:12.657Z,2.03
2018-11-10T11:20:41.215Z,4.73
2018-11-10T11:23:09.764Z,3.90
2018-11-10T11:25:38.380Z,2.80
2018-11-10T11:28:07.058Z,1.80
2018-11-10T11:30:35.622Z,2.30
2018-11-10T11:33:04.148Z,1.97
2018-11-10T11:35:32.678Z,1.80
2018-11-10T11:38:01.371Z,2.53
2018-11-10T11:40:29.928Z,2.73
2018-11-10T11:42:58.457Z,2.93
2018-11-10T11:45:27.368Z,2.70
2018-11-10T11:47:56.650Z,2.10
2018-11-10T11:50:25.202Z,2.60
2018-11-10T11:52:53.761Z,3.23
2018-11-10T11:55:22.254Z,2.40
2018-11-10T11:57:51.077Z,2.87
2018-11-10T12:00:19.510Z,1.63
2018-11-10T12:02:48.689Z,1.60
2018-11-10T12:05:18.478Z,1.93
2018-11-10T12:07:47.589Z,2.20
2018-11-10T12:10:16.899Z,2.67
2018-11-10T12:12:45.441Z,1.80
2018-11-10T12:15:15.259Z,2.03
2018-11-10T12:17:44.437Z,2.70
2018-11-10T12:20:14.329Z,4.62
2018-11-10T12:22:43.203Z,1.63
2018-11-10T12:25:12.757Z,2.23
2018-11-10T12:27:41.985Z,3.33
2018-11-10T12:30:11.164Z,1.83
2018-11-10T12:32:40.898Z,2.63
2018-11-10T12:35:11.486Z,1.23
2018-11-10T12:37:40.039Z,1.87
2018-11-10T12:40:10.759Z,1.62
2018-11-10T12:42:40.073Z,5.73
2018-11-10T12:45:10.460Z,1.60
2018-11-10T12:47:39.877Z,1.57
2018-11-10T12:50:10.175Z,4.07
2018-11-10T12:52:38.765Z,2.77
2018-11-10T12:55:08.795Z,1.57
2018-11-10T12:57:37.361Z,2.23
2018-11-10T13:00:07.202Z,1.53
2018-11-10T13:02:36.272Z,1.73
2018-11-10T13:05:05.864Z,1.43
2018-11-10T13:07:34.501Z,2.90
2018-11-10T13:10:03.601Z,2.13
2018-11-10T13:12:32.241Z,2.83
2018-11-10T13:15:00.772Z,9.80
2018-11-10T13:17:29.424Z,4.20
2018-11-10T13:19:57.919Z,4.50
2018-11-10T13:22:27.217Z,2.43
2018-11-10T13:24:55.833Z,1.67
2018-11-10T13:27:25.251Z,2.57
2018-11-10T13:29:53.906Z,3.20
2018-11-10T13:32:22.597Z,2.40
2018-11-10T13:34:51.699Z,2.40
2018-11-10T13:37:20.317Z,3.03
2018-11-10T13:39:48.902Z,7.30
2018-11-10T13:42:17.476Z,11.07
2018-11-10T13:44:46.137Z,12.83
2018-11-10T13:47:14.846Z,14.30
2018-11-10T13:49:43.632Z,2.73
2018-11-10T13:52:12.537Z,5.47
2018-11-10T13:54:41.067Z,4.20
2018-11-10T13:57:10.361Z,11.10
2018-11-10T13:59:39.138Z,9.27
2018-11-10T14:02:07.756Z,5.07
2018-11-10T14:04:36.744Z,4.43
2018-11-10T14:07:05.735Z,4.60
2018-11-10T14:09:34.431Z,5.50
2018-11-10T14:12:03.189Z,5.90
2018-11-10T14:14:32.089Z,10.97
2018-11-10T14:17:01.781Z,6.70
2018-11-10T14:19:30.628Z,6.67
2018-11-10T14:21:59.281Z,6.43
2018-11-10T14:24:28.576Z,6.10
2018-11-10T14:26:57.167Z,6.97
2018-11-10T14:29:27.061Z,7.73
2018-11-10T14:31:55.634Z,7.63
2018-11-10T14:34:24.938Z,10.57
2018-11-10T14:36:53.544Z,8.40
2018-11-10T14:39:22.215Z,8.67
2018-11-10T14:41:50.886Z,11.73
2018-11-10T14:44:19.606Z,8.90
2018-11-10T14:46:48.764Z,9.80
2018-11-10T14:49:17.633Z,9.40
2018-11-10T14:51:46.304Z,9.27
2018-11-10T14:54:14.895Z,9.57
2018-11-10T14:56:43.530Z,10.33
2018-11-10T14:59:12.141Z,10.37
2018-11-10T15:01:41.584Z,10.20
2018-11-10T15:04:10.153Z,10.67
2018-11-10T15:06:38.885Z,11.83
2018-11-10T15:09:09.345Z,9.77
2018-11-10T15:11:38.090Z,13.27
2018-11-10T15:14:07.351Z,10.47
2018-11-10T15:16:36.118Z,8.03
2018-11-10T15:19:04.950Z,9.27
2018-11-10T15:21:35.383Z,9.20
2018-11-10T15:24:05.031Z,9.20
2018-11-10T15:26:33.716Z,9.50
2018-11-10T15:29:09.075Z,11.17
2018-11-10T15:31:40.633Z,9.30
2018-11-10T15:34:11.346Z,11.13
2018-11-10T15:36:39.898Z,10.33
2018-11-10T15:39:10.328Z,62.70
2018-11-10T15:41:40.752Z,37.93
2018-11-10T15:44:10.368Z,172.47
2018-11-10T15:46:39.101Z,13.17
2018-11-10T15:49:09.288Z,10.93
2018-11-10T15:51:39.824Z,11.87
2018-11-10T15:54:09.282Z,14.10
2018-11-10T15:56:41.208Z,13.07
2018-11-10T15:59:10.362Z,15.00
2018-11-10T16:01:39.761Z,13.37
2018-11-10T16:04:08.305Z,13.57
2018-11-10T16:06:36.913Z,15.00
2018-11-10T16:09:08.876Z,15.73
2018-11-10T16:11:37.393Z,16.90
2018-11-10T16:14:06.133Z,15.27
2018-11-10T16:16:34.713Z,16.70
2018-11-10T16:19:03.387Z,15.33
2018-11-10T16:21:32.854Z,19.77
2018-11-10T16:24:01.401Z,25.73
2018-11-10T16:26:30.021Z,105.20
2018-11-10T16:28:59.111Z,64.60
2018-11-10T16:31:29.481Z,20.70
2018-11-10T16:33:58.514Z,19.50
2018-11-10T16:36:28.102Z,17.37
2018-11-10T16:38:56.715Z,18.63
2018-11-10T16:41:25.257Z,18.93
2018-11-10T16:43:53.904Z,19.60
2018-11-10T16:46:23.302Z,20.03
2018-11-10T16:48:51.909Z,18.30
2018-11-10T16:51:20.674Z,18.53
2018-11-10T16:53:50.940Z,20.40
2018-11-10T16:56:20.478Z,20.43
2018-11-10T16:58:49.305Z,22.20
2018-11-10T17:01:18.920Z,19.37
2018-11-10T17:03:47.457Z,19.67
2018-11-10T17:06:15.989Z,22.50
2018-11-10T17:08:44.550Z,19.73
2018-11-10T17:11:13.230Z,18.87
2018-11-10T17:13:42.093Z,20.00
2018-11-10T17:16:10.594Z,24.03
2018-11-10T17:18:39.170Z,22.07
2018-11-10T17:21:07.728Z,24.70
2018-11-10T17:23:36.306Z,24.17
2018-11-10T17:26:04.926Z,24.10
2018-11-10T17:28:33.487Z,25.10
2018-11-10T17:31:02.081Z,25.53
2018-11-10T17:33:31.112Z,27.40
2018-11-10T17:36:00.341Z,27.47
2018-11-10T17:38:29.012Z,28.20
2018-11-10T17:40:58.546Z,25.00
2018-11-10T17:43:27.773Z,30.43
2018-11-10T17:45:57.099Z,25.47
2018-11-10T17:48:31.045Z,23.73
2018-11-10T17:50:59.749Z,49.33
2018-11-10T17:53:28.352Z,48.40
2018-11-10T17:55:57.153Z,25.37
2018-11-10T17:58:25.737Z,24.57
2018-11-10T18:00:54.615Z,27.23
2018-11-10T18:03:24.191Z,21.77
2018-11-10T18:05:52.716Z,27.67
2018-11-10T18:08:21.462Z,24.83
2018-11-10T18:10:50.913Z,23.00
2018-11-10T18:13:21.886Z,24.93
2018-11-10T18:15:50.561Z,21.40
2018-11-10T18:18:19.129Z,24.00
2018-11-10T18:20:48.874Z,23.47
2018-11-10T18:23:18.968Z,25.27
2018-11-10T18:25:47.528Z,20.47
2018-11-10T18:28:16.133Z,20.17
2018-11-10T18:30:44.695Z,24.27
2018-11-10T18:33:13.268Z,20.10
2018-11-10T18:35:42.771Z,23.43
2018-11-10T18:38:14.585Z,24.07
2018-11-10T18:40:46.382Z,28.80
2018-11-10T18:43:18.967Z,26.33
2018-11-10T18:45:51.413Z,31.47
2018-11-10T18:48:27.538Z,39.27
2018-11-10T18:50:59.352Z,39.87
2018-11-10T18:53:28.051Z,39.83
2018-11-10T18:55:57.374Z,42.53
2018-11-10T18:58:25.997Z,36.87
2018-11-10T19:00:54.916Z,40.87
2018-11-10T19:03:23.679Z,40.63
2018-11-10T19:05:52.333Z,39.93
2018-11-10T19:08:20.970Z,42.80
2018-11-10T19:10:49.734Z,43.63
2018-11-10T19:13:18.294Z,42.80
2018-11-10T19:15:47.038Z,43.07
2018-11-10T19:18:15.717Z,41.03
2018-11-10T19:20:44.303Z,43.53
2018-11-10T19:23:13.660Z,43.43
2018-11-10T19:25:42.284Z,37.40
2018-11-10T19:28:12.366Z,40.13
2018-11-10T19:30:40.988Z,42.63
2018-11-10T19:33:09.715Z,39.57
2018-11-10T19:35:38.262Z,39.20
2018-11-10T19:38:07.620Z,43.73
2018-11-10T19:40:36.233Z,42.00
2018-11-10T19:43:05.183Z,37.57
2018-11-10T19:45:33.786Z,34.57
2018-11-10T19:48:02.437Z,42.80
2018-11-10T19:50:31.186Z,43.40
2018-11-10T19:52:59.636Z,37.87
2018-11-10T19:55:28.165Z,41.83
2018-11-10T19:57:57.661Z,49.87
2018-11-10T20:00:28.604Z,45.90
2018-11-10T20:02:59.648Z,51.07
2018-11-10T20:05:28.327Z,39.40
2018-11-10T20:07:57.958Z,43.60
2018-11-10T20:10:26.557Z,73.43
2018-11-10T20:12:56.399Z,56.13
2018-11-10T20:15:25.061Z,36.67
2018-11-10T20:17:56.372Z,42.03
2018-11-10T20:20:24.981Z,41.53
2018-11-10T20:22:59.590Z,34.63
2018-11-10T20:25:28.329Z,39.40
2018-11-10T20:27:58.569Z,39.27
2018-11-10T20:30:28.237Z,51.70
2018-11-10T20:32:56.873Z,51.57
2018-11-10T20:35:25.489Z,56.97
2018-11-10T20:37:54.657Z,52.07
2018-11-10T20:40:23.907Z,56.27
2018-11-10T20:42:52.641Z,39.70
2018-11-10T20:45:22.170Z,35.77
2018-11-10T20:47:53.061Z,30.40
2018-11-10T20:50:21.713Z,50.60
2018-11-10T20:52:50.361Z,31.57
2018-11-10T20:55:18.917Z,43.70
2018-11-10T20:57:48.496Z,87.87
2018-11-10T21:00:18.754Z,88.90
2018-11-10T21:02:47.358Z,31.60
2018-11-10T21:05:16.949Z,49.83
2018-11-10T21:07:45.849Z,124.53
2018-11-10T21:10:17.505Z,89.33
2018-11-10T21:12:48.049Z,50.60
2018-11-10T21:15:17.165Z,56.67
2018-11-10T21:17:46.840Z,126.53
2018-11-10T21:20:23.073Z,51.30
2018-11-10T21:22:51.626Z,90.47
2018-11-10T21:25:21.704Z,241.47
2018-11-10T21:27:50.317Z,98.63
2018-11-10T21:30:20.818Z,145.60
2018-11-10T21:32:49.854Z,107.40
2018-11-10T21:35:18.559Z,124.40
2018-11-10T21:37:47.377Z,264.60
2018-11-10T21:40:19.467Z,276.83
2018-11-10T21:42:48.017Z,95.20
2018-11-10T21:45:17.448Z,405.03
2018-11-10T21:47:46.314Z,473.90
2018-11-10T21:50:16.748Z,237.13
2018-11-10T21:52:49.046Z,269.63
2018-11-10T21:55:18.983Z,229.87
2018-11-10T21:57:49.381Z,356.13
2018-11-10T22:00:19.907Z,378.73
2018-11-10T22:02:49.585Z,296.93
2018-11-10T22:05:18.490Z,298.87
2018-11-10T22:07:47.112Z,148.13
2018-11-10T22:10:16.887Z,267.07
2018-11-10T22:12:45.792Z,202.10
2018-11-10T22:15:17.167Z,220.93
2018-11-10T22:17:46.245Z,226.87
2018-11-10T22:20:16.340Z,273.07
2018-11-10T22:22:45.160Z,68.07
2018-11-10T22:25:14.169Z,84.93
2018-11-10T22:27:43.929Z,68.50
2018-11-10T22:30:13.938Z,112.53
2018-11-10T22:32:43.134Z,82.70
2018-11-10T22:35:12.133Z,97.20
2018-11-10T22:37:40.876Z,197.20
2018-11-10T22:40:12.069Z,129.57
2018-11-10T22:42:41.192Z,262.77
2018-11-10T22:45:11.837Z,127.37
2018-11-10T22:47:41.751Z,236.93
2018-11-10T22:50:13.393Z,68.00
2018-11-10T22:52:45.296Z,223.43
2018-11-10T22:55:14.594Z,68.37
2018-11-10T22:57:43.372Z,50.93
2018-11-10T23:00:16.465Z,150.87
2018-11-10T23:02:47.501Z,63.17
2018-11-10T23:05:16.691Z,78.83
2018-11-10T23:07:45.257Z,92.87
2018-11-10T23:10:14.534Z,100.87
2018-11-10T23:12:44.068Z,202.67
2018-11-10T23:15:12.641Z,50.20
2018-11-10T23:17:41.558Z,215.03
2018-11-10T23:20:11.857Z,197.07
2018-11-10T23:22:41.189Z,327.83
2018-11-10T23:25:14.366Z,82.60
2018-11-10T23:27:42.967Z,52.23
2018-11-10T23:30:14.473Z,133.97
2018-11-10T23:32:43.054Z,43.70
2018-11-10T23:35:12.354Z,96.17
2018-11-10T23:37:41.423Z,97.10
2018-11-10T23:40:12.200Z,97.03
2018-11-10T23:42:41.353Z,56.07
2018-11-10T23:45:10.596Z,168.00
2018-11-10T23:47:39.553Z,41.07
2018-11-10T23:50:10.329Z,98.90
2018-11-10T23:52:39.474Z,89.83
2018-11-10T23:55:09.026Z,118.97
2018-11-10T23:57:37.648Z,62.60
